Airfield :
LOGIN :

Register | Disclaimer

   EN    FR    IT 

 










Legend :    VFR   Marginal VFR   IFR   Intensive IFR   Very Intensive IFR
Visi :
Ceiling :
>= 8 km
>= 3000ft
5 to 8 km
1000 to 3000 ft
1500m to 5 km
500 to 1000 ft
800 to 1500m
200 to 500 ft
< 800m
< 200 ft
Symbols :   Thunderstorms  Fog  Heavy snow  Heavy precipitations  Wind > 20 kt
SIGMETs :     Misc.  Thunderstorms  Icing  Turbulence  Mountain Waves  Volcanic Ashes






- Airport Elevation : 1375 ft
- IATA code : SCV


LRSV - Suceava Stefan cel Mare

CURRENT METAR :
  • 100300Z 30009KT CAVOK 11/M05 Q1016

EXPIRED METARs :
  • 100230Z 31010KT CAVOK 12/M05 Q1016
  • 100200Z 31011KT CAVOK 13/M05 Q1016
  • 100130Z 30011KT CAVOK 12/M05 Q1016
  • 100100Z 30011KT CAVOK 12/M05 Q1016
  • 100030Z 28013KT CAVOK 13/M05 Q1016

TAF TAF LRSV
Valid from the 10 at 03:00 until the 10 at 12:00 UTC


100200Z 1003/1012 30012KT CAVOK
TEMPO 1006/1012 32015G25KT



MET'MAP, your aeronautical weather chart ! - Copyright ORBIFLY December 2007 - Disclaimer

ORBIFLY MET'MAP TEAM :

Programming & Development : Alexandra Zaïnal
Concept & original design : Baudouin d'Aumeries
Assistance for programming : Marc-Olivier Méhu
Technical & hardware support : Manuel Goepfert

Contact : metmap@orbifly.com




SOURCES & CREDITS :

   NOAA